nws-alerts: Checking more than four warning/county codes can delay the loading of your pages. You should use a cron job to get the data.
EllijayWeather Historical Data
Daily Summary for August 25, 2019 Units:  English    Metric   Both
Daily Weekly Monthly Yearly
  High: Low: Average:
Temperature: 72.0 °F 66.0 °F 68 °F
Dew Point: 68.0 °F 62.0 °F 64.2 °F
Humidity: 94% 82% 88%
Wind Speed: 6mph 0mph 1.1mph
Wind Gust: 7mph - -
Wind- - SE
Pressure: 30.1 in 30.0 in -
Precipitation: 0.020 in    
 
 
Tabular Data for August 25, 2019
Time Temperature Dew Point Pressure Wind Wind Speed Wind Gust Humidity Rainfall Rate (Hourly)
00:04 70.0 °F 68.0 °F 30.1 in ESE 1 mph 5 mph 93% 0.000 in
00:09 70.0 °F 68.0 °F 30.1 in SE 2 mph 5 mph 93% 0.000 in
00:14 70.0 °F 68.0 °F 30.1 in ESE 1 mph 1 mph 93% 0.000 in
00:19 70.0 °F 68.0 °F 30.1 in ESE 2 mph 5 mph 93% 0.000 in
00:24 70.0 °F 68.0 °F 30.1 in Calm   6 mph 93% 0.000 in
00:29 70.0 °F 68.0 °F 30.1 in SE 1 mph 6 mph 93% 0.000 in
00:34 69.0 °F 67.0 °F 30.1 in Calm     93% 0.000 in
00:39 69.0 °F 67.0 °F 30.1 in Calm   1 mph 93% 0.000 in
00:44 69.0 °F 67.0 °F 30.1 in ESE 1 mph 2 mph 93% 0.000 in
00:49 69.0 °F 67.0 °F 30.1 in ESE 2 mph 4 mph 92% 0.000 in
00:54 69.0 °F 67.0 °F 30.1 in ESE 2 mph 4 mph 92% 0.000 in
00:59 69.0 °F 66.0 °F 30.1 in ESE 2 mph 2 mph 91% 0.000 in
01:04 69.0 °F 66.0 °F 30.1 in ESE 4 mph 6 mph 92% 0.000 in
01:09 68.0 °F 66.0 °F 30.1 in SE 2 mph 6 mph 92% 0.000 in
01:14 68.0 °F 66.0 °F 30.1 in SE 2 mph 5 mph 92% 0.000 in
01:19 68.0 °F 66.0 °F 30.1 in SE 1 mph 2 mph 92% 0.000 in
01:24 68.0 °F 66.0 °F 30.1 in Calm   1 mph 92% 0.000 in
01:29 68.0 °F 66.0 °F 30.1 in SE 1 mph 2 mph 92% 0.000 in
01:34 68.0 °F 65.0 °F 30.1 in SE 4 mph 4 mph 92% 0.000 in
01:39 68.0 °F 65.0 °F 30.1 in Calm   4 mph 91% 0.000 in
01:44 68.0 °F 65.0 °F 30.1 in SE 1 mph 2 mph 91% 0.000 in
01:49 68.0 °F 65.0 °F 30.1 in Calm   1 mph 92% 0.000 in
01:54 68.0 °F 65.0 °F 30.1 in Calm     92% 0.000 in
01:59 67.0 °F 65.0 °F 30.1 in Calm     92% 0.000 in
02:04 67.0 °F 65.0 °F 30.1 in Calm     92% 0.000 in
02:09 67.0 °F 65.0 °F 30.1 in Calm     92% 0.000 in
02:14 67.0 °F 65.0 °F 30.1 in Calm   5 mph 92% 0.000 in
02:19 67.0 °F 65.0 °F 30.1 in ESE 1 mph 5 mph 92% 0.000 in
02:24 67.0 °F 64.0 °F 30.1 in Calm   2 mph 91% 0.000 in
02:29 67.0 °F 64.0 °F 30.1 in ESE 1 mph 2 mph 91% 0.000 in
02:34 67.0 °F 64.0 °F 30.1 in Calm   2 mph 91% 0.000 in
02:39 67.0 °F 64.0 °F 30.1 in ESE 2 mph 5 mph 91% 0.000 in
02:44 67.0 °F 64.0 °F 30.1 in SE 1 mph 2 mph 91% 0.000 in
02:49 67.0 °F 64.0 °F 30.1 in SE 1 mph 1 mph 91% 0.000 in
02:54 67.0 °F 64.0 °F 30.1 in Calm   1 mph 90% 0.000 in
02:59 66.0 °F 63.0 °F 30.1 in SE 4 mph 4 mph 90% 0.000 in
03:04 66.0 °F 63.0 °F 30.1 in East 4 mph 5 mph 90% 0.000 in
03:09 66.0 °F 63.0 °F 30.1 in East 1 mph 5 mph 90% 0.000 in
03:14 66.0 °F 64.0 °F 30.1 in East 1 mph 2 mph 91% 0.000 in
03:19 66.0 °F 63.0 °F 30.1 in ESE 2 mph 5 mph 90% 0.000 in
03:24 66.0 °F 64.0 °F 30.1 in ESE 2 mph 2 mph 91% 0.000 in
03:29 66.0 °F 64.0 °F 30.1 in ESE 1 mph 2 mph 91% 0.000 in
03:34 66.0 °F 63.0 °F 30.1 in ESE 1 mph 1 mph 90% 0.000 in
03:39 66.0 °F 64.0 °F 30.1 in Calm   1 mph 91% 0.000 in
03:44 66.0 °F 63.0 °F 30.1 in Calm   1 mph 90% 0.000 in
03:49 66.0 °F 63.0 °F 30.1 in Calm   2 mph 90% 0.000 in
03:54 66.0 °F 63.0 °F 30.1 in ESE 1 mph 1 mph 90% 0.000 in
03:59 66.0 °F 63.0 °F 30.1 in Calm   1 mph 90% 0.000 in
04:04 66.0 °F 63.0 °F 30.1 in Calm   1 mph 91% 0.000 in
04:09 66.0 °F 63.0 °F 30.1 in ESE 2 mph 5 mph 91% 0.000 in
04:14 66.0 °F 63.0 °F 30.1 in Calm   5 mph 90% 0.000 in
04:19 66.0 °F 63.0 °F 30.1 in ESE 4 mph 5 mph 91% 0.000 in
04:24 66.0 °F 63.0 °F 30.1 in Calm   1 mph 91% 0.000 in
04:29 66.0 °F 63.0 °F 30.1 in ESE 1 mph 4 mph 90% 0.000 in
04:34 66.0 °F 63.0 °F 30.1 in ESE 1 mph 4 mph 90% 0.000 in
04:39 66.0 °F 63.0 °F 30.1 in Calm     91% 0.000 in
04:44 66.0 °F 63.0 °F 30.1 in ESE 1 mph 1 mph 91% 0.000 in
04:49 66.0 °F 63.0 °F 30.1 in Calm   1 mph 90% 0.000 in
04:54 66.0 °F 63.0 °F 30.1 in ESE 1 mph 1 mph 91% 0.000 in
04:59 66.0 °F 63.0 °F 30.1 in Calm   1 mph 91% 0.000 in
05:04 66.0 °F 63.0 °F 30.1 in Calm   2 mph 91% 0.000 in
05:09 66.0 °F 63.0 °F 30.0 in ESE 1 mph 1 mph 91% 0.000 in
05:14 66.0 °F 63.0 °F 30.0 in ESE 2 mph 2 mph 90% 0.000 in
05:19 66.0 °F 63.0 °F 30.1 in Calm     90% 0.000 in
05:24 66.0 °F 63.0 °F 30.0 in ESE 1 mph 1 mph 91% 0.000 in
05:29 66.0 °F 63.0 °F 30.0 in ESE 2 mph 4 mph 91% 0.000 in
05:34 66.0 °F 63.0 °F 30.1 in SE 1 mph 2 mph 91% 0.000 in
05:39 66.0 °F 63.0 °F 30.1 in SE 2 mph 4 mph 91% 0.000 in
05:44 66.0 °F 63.0 °F 30.1 in Calm   2 mph 91% 0.000 in
05:49 66.0 °F 63.0 °F 30.1 in Calm   2 mph 91% 0.000 in
05:54 66.0 °F 63.0 °F 30.1 in Calm   4 mph 91% 0.000 in
05:59 66.0 °F 63.0 °F 30.1 in Calm   1 mph 91% 0.000 in
06:04 66.0 °F 63.0 °F 30.1 in Calm   1 mph 90% 0.000 in
06:09 66.0 °F 63.0 °F 30.1 in SE 1 mph 1 mph 90% 0.000 in
06:14 66.0 °F 63.0 °F 30.1 in SE 1 mph 1 mph 90% 0.000 in
06:19 66.0 °F 63.0 °F 30.1 in Calm   1 mph 90% 0.000 in
06:24 66.0 °F 63.0 °F 30.1 in Calm   1 mph 90% 0.000 in
06:29 66.0 °F 63.0 °F 30.1 in ESE 2 mph 5 mph 90% 0.000 in
06:34 66.0 °F 63.0 °F 30.1 in East 1 mph 1 mph 90% 0.000 in
06:39 66.0 °F 63.0 °F 30.1 in East 1 mph 2 mph 90% 0.000 in
06:44 66.0 °F 63.0 °F 30.1 in East 1 mph 1 mph 90% 0.000 in
06:49 66.0 °F 63.0 °F 30.1 in ESE 1 mph 4 mph 90% 0.000 in
06:54 66.0 °F 63.0 °F 30.1 in ESE 2 mph 2 mph 90% 0.000 in
06:59 66.0 °F 63.0 °F 30.1 in ESE 1 mph 2 mph 91% 0.000 in
07:04 66.0 °F 63.0 °F 30.1 in SE 1 mph 2 mph 90% 0.000 in
07:09 66.0 °F 63.0 °F 30.1 in SE 1 mph 1 mph 90% 0.000 in
07:14 66.0 °F 63.0 °F 30.1 in Calm   1 mph 90% 0.000 in
07:19 66.0 °F 63.0 °F 30.1 in ESE 1 mph 4 mph 90% 0.000 in
07:24 66.0 °F 62.0 °F 30.1 in ESE 1 mph 2 mph 89% 0.000 in
07:29 66.0 °F 62.0 °F 30.1 in Calm   1 mph 89% 0.000 in
07:34 66.0 °F 63.0 °F 30.1 in Calm     90% 0.000 in
07:39 66.0 °F 62.0 °F 30.1 in ESE 1 mph 2 mph 89% 0.000 in
07:44 66.0 °F 62.0 °F 30.1 in Calm   1 mph 89% 0.000 in
07:49 66.0 °F 62.0 °F 30.1 in ESE 1 mph 2 mph 89% 0.000 in
07:54 66.0 °F 62.0 °F 30.1 in Calm   1 mph 89% 0.000 in
07:59 66.0 °F 62.0 °F 30.1 in ESE 1 mph 1 mph 89% 0.000 in
08:04 66.0 °F 62.0 °F 30.1 in ESE 1 mph 1 mph 88% 0.000 in
08:09 66.0 °F 62.0 °F 30.1 in ESE 1 mph 1 mph 88% 0.000 in
08:14 66.0 °F 62.0 °F 30.1 in ESE 1 mph 4 mph 88% 0.000 in
08:19 66.0 °F 62.0 °F 30.1 in ESE 1 mph 4 mph 88% 0.000 in
08:24 66.0 °F 62.0 °F 30.1 in ESE 2 mph 4 mph 87% 0.000 in
08:29 66.0 °F 62.0 °F 30.1 in SE 2 mph 4 mph 88% 0.000 in
08:34 66.0 °F 62.0 °F 30.1 in ESE 1 mph 4 mph 88% 0.000 in
08:39 66.0 °F 62.0 °F 30.1 in ESE 1 mph 2 mph 87% 0.000 in
08:44 66.0 °F 62.0 °F 30.1 in East 1 mph 4 mph 87% 0.000 in
08:49 66.0 °F 62.0 °F 30.1 in SE 4 mph 4 mph 87% 0.000 in
08:54 66.0 °F 62.0 °F 30.1 in ESE 4 mph 4 mph 88% 0.000 in
08:59 66.0 °F 62.0 °F 30.1 in SE 1 mph 4 mph 87% 0.000 in
09:04 66.0 °F 62.0 °F 30.1 in ESE 1 mph 2 mph 87% 0.000 in
09:09 66.0 °F 62.0 °F 30.1 in SE 1 mph 4 mph 87% 0.000 in
09:14 66.0 °F 62.0 °F 30.1 in Calm   4 mph 86% 0.000 in
09:19 66.0 °F 62.0 °F 30.1 in Calm   2 mph 87% 0.000 in
09:24 66.0 °F 62.0 °F 30.1 in Calm   1 mph 87% 0.000 in
09:29 66.0 °F 62.0 °F 30.1 in ENE 1 mph 4 mph 87% 0.000 in
09:34 66.0 °F 62.0 °F 30.1 in ESE 4 mph 4 mph 86% 0.000 in
09:39 67.0 °F 62.0 °F 30.1 in ESE 1 mph 2 mph 86% 0.000 in
09:44 67.0 °F 62.0 °F 30.1 in ESE 1 mph 2 mph 85% 0.000 in
09:49 67.0 °F 62.0 °F 30.1 in SE 2 mph 5 mph 85% 0.000 in
09:54 68.0 °F 63.0 °F 30.1 in SE 1 mph 1 mph 85% 0.000 in
09:59 68.0 °F 63.0 °F 30.1 in SE 1 mph 1 mph 85% 0.000 in
10:04 68.0 °F 63.0 °F 30.1 in SE 4 mph 7 mph 85% 0.000 in
10:09 68.0 °F 63.0 °F 30.1 in SE 5 mph 7 mph 84% 0.000 in
10:14 68.0 °F 63.0 °F 30.1 in SE 2 mph 4 mph 85% 0.000 in
10:19 68.0 °F 62.0 °F 30.1 in SE 5 mph 5 mph 84% 0.000 in
10:24 67.0 °F 62.0 °F 30.1 in Calm   4 mph 84% 0.000 in
10:29 67.0 °F 62.0 °F 30.1 in SE 4 mph 4 mph 85% 0.000 in
10:34 67.0 °F 63.0 °F 30.1 in ESE 4 mph 5 mph 85% 0.000 in
10:39 68.0 °F 63.0 °F 30.1 in ESE 2 mph 5 mph 85% 0.000 in
10:44 68.0 °F 63.0 °F 30.1 in ESE 1 mph 2 mph 85% 0.000 in
10:49 68.0 °F 63.0 °F 30.1 in SE 4 mph 4 mph 84% 0.000 in
10:54 68.0 °F 63.0 °F 30.1 in South 1 mph 4 mph 84% 0.000 in
10:59 68.0 °F 63.0 °F 30.1 in South 1 mph 1 mph 84% 0.000 in
11:04 68.0 °F 63.0 °F 30.1 in ESE 1 mph 4 mph 84% 0.000 in
11:09 68.0 °F 62.0 °F 30.1 in SE 1 mph 4 mph 84% 0.000 in
11:14 67.0 °F 62.0 °F 30.1 in SE 4 mph 4 mph 84% 0.000 in
11:19 67.0 °F 63.0 °F 30.1 in ESE 6 mph 6 mph 85% 0.000 in
11:24 67.0 °F 62.0 °F 30.1 in SE 2 mph 4 mph 85% 0.000 in
11:29 67.0 °F 62.0 °F 30.1 in ESE 1 mph 4 mph 85% 0.000 in
11:34 67.0 °F 62.0 °F 30.1 in ESE 2 mph 5 mph 85% 0.000 in
11:39 67.0 °F 62.0 °F 30.1 in ESE 1 mph 5 mph 85% 0.000 in
11:44 67.0 °F 62.0 °F 30.1 in SE 4 mph 4 mph 86% 0.000 in
11:49 67.0 °F 62.0 °F 30.1 in SE 1 mph 2 mph 86% 0.000 in
11:54 67.0 °F 62.0 °F 30.1 in SE 2 mph 2 mph 85% 0.000 in
11:59 67.0 °F 62.0 °F 30.1 in SE 1 mph 5 mph 85% 0.000 in
12:04 67.0 °F 63.0 °F 30.1 in ESE 1 mph 4 mph 86% 0.000 in
12:09 67.0 °F 62.0 °F 30.1 in SE 4 mph 4 mph 85% 0.000 in
12:14 67.0 °F 62.0 °F 30.1 in SE 2 mph 4 mph 85% 0.000 in
12:19 67.0 °F 62.0 °F 30.1 in ESE 5 mph 5 mph 85% 0.000 in
12:24 67.0 °F 62.0 °F 30.1 in SE 2 mph 5 mph 85% 0.000 in
12:29 67.0 °F 63.0 °F 30.1 in ESE 4 mph 5 mph 86% 0.000 in
12:34 67.0 °F 62.0 °F 30.1 in SE 5 mph 5 mph 85% 0.000 in
12:39 68.0 °F 63.0 °F 30.1 in Calm   1 mph 85% 0.000 in
12:44 68.0 °F 63.0 °F 30.1 in ESE 1 mph 2 mph 85% 0.000 in
12:49 68.0 °F 63.0 °F 30.1 in South 3 mph 4 mph 85% 0.000 in
12:54 68.0 °F 63.0 °F 30.1 in SE 1 mph 4 mph 84% 0.000 in
12:59 68.0 °F 62.0 °F 30.1 in ESE 4 mph 4 mph 84% 0.000 in
13:04 68.0 °F 63.0 °F 30.1 in ESE 1 mph 1 mph 85% 0.000 in
13:09 68.0 °F 63.0 °F 30.1 in ESE 4 mph 5 mph 85% 0.000 in
13:14 68.0 °F 63.0 °F 30.1 in ESE 4 mph 4 mph 85% 0.000 in
13:19 68.0 °F 63.0 °F 30.1 in ESE 1 mph 4 mph 84% 0.000 in
13:24 68.0 °F 63.0 °F 30.1 in ESE 1 mph 2 mph 84% 0.000 in
13:29 69.0 °F 64.0 °F 30.1 in ESE 4 mph 4 mph 84% 0.000 in
13:34 69.0 °F 63.0 °F 30.1 in ESE 1 mph 4 mph 83% 0.000 in
13:38 69.0 °F 64.0 °F 30.1 in Calm   1 mph 84% 0.000 in
13:44 69.0 °F 64.0 °F 30.1 in ESE 1 mph 2 mph 84% 0.000 in
13:49 69.0 °F 64.0 °F 30.1 in Calm   1 mph 84% 0.000 in
13:54 69.0 °F 64.0 °F 30.1 in SW 2 mph 3 mph 84% 0.000 in
13:59 69.0 °F 65.0 °F 30.1 in SE 1 mph 1 mph 85% 0.000 in
14:04 70.0 °F 64.0 °F 30.1 in Calm     84% 0.000 in
14:09 70.0 °F 64.0 °F 30.1 in Calm   1 mph 83% 0.000 in
14:14 70.0 °F 64.0 °F 30.1 in SE 1 mph 1 mph 83% 0.000 in
14:19 70.0 °F 64.0 °F 30.1 in SE 1 mph 1 mph 83% 0.000 in
14:24 69.0 °F 64.0 °F 30.1 in Calm   1 mph 84% 0.000 in
14:29 69.0 °F 64.0 °F 30.1 in SE 1 mph 4 mph 84% 0.000 in
14:34 69.0 °F 64.0 °F 30.1 in SE 1 mph 1 mph 83% 0.000 in
14:39 69.0 °F 64.0 °F 30.1 in SE 1 mph 4 mph 84% 0.000 in
14:44 69.0 °F 64.0 °F 30.1 in Calm   4 mph 84% 0.000 in
14:49 69.0 °F 64.0 °F 30.1 in SE 1 mph 2 mph 83% 0.000 in
14:54 69.0 °F 64.0 °F 30.1 in SE 1 mph 4 mph 84% 0.000 in
14:59 70.0 °F 65.0 °F 30.1 in SE 1 mph 1 mph 84% 0.000 in
15:04 70.0 °F 64.0 °F 30.1 in SE 5 mph 5 mph 83% 0.000 in
15:09 70.0 °F 65.0 °F 30.1 in SE 2 mph 2 mph 83% 0.000 in
15:14 70.0 °F 65.0 °F 30.1 in SE 2 mph 4 mph 82% 0.000 in
15:19 71.0 °F 65.0 °F 30.1 in Calm   4 mph 83% 0.000 in
15:24 70.0 °F 65.0 °F 30.1 in Calm   1 mph 82% 0.000 in
15:29 70.0 °F 65.0 °F 30.1 in SE 1 mph 5 mph 82% 0.000 in
15:34 70.0 °F 65.0 °F 30.1 in SE 2 mph 2 mph 84% 0.000 in
15:39 70.0 °F 65.0 °F 30.1 in SE 1 mph 4 mph 82% 0.000 in
15:44 70.0 °F 65.0 °F 30.1 in Calm     84% 0.000 in
15:49 71.0 °F 66.0 °F 30.1 in SE 1 mph 1 mph 84% 0.000 in
15:54 71.0 °F 65.0 °F 30.1 in Calm     83% 0.000 in
15:59 71.0 °F 66.0 °F 30.0 in SE 1 mph 2 mph 84% 0.000 in
16:04 71.0 °F 65.0 °F 30.0 in Calm   2 mph 83% 0.000 in
16:09 71.0 °F 65.0 °F 30.0 in Calm   1 mph 83% 0.000 in
16:14 71.0 °F 66.0 °F 30.0 in Calm   1 mph 84% 0.000 in
16:19 71.0 °F 66.0 °F 30.0 in Calm   1 mph 83% 0.000 in
16:24 71.0 °F 66.0 °F 30.0 in SE 2 mph 2 mph 83% 0.000 in
16:29 71.0 °F 66.0 °F 30.0 in SE 1 mph 1 mph 83% 0.000 in
16:34 71.0 °F 66.0 °F 30.0 in SE 4 mph 4 mph 83% 0.000 in
16:39 71.0 °F 66.0 °F 30.0 in Calm     84% 0.000 in
16:44 71.0 °F 66.0 °F 30.0 in SE 1 mph 2 mph 84% 0.000 in
16:49 72.0 °F 66.0 °F 30.0 in Calm   2 mph 82% 0.000 in
16:54 72.0 °F 66.0 °F 30.0 in SE 1 mph 2 mph 82% 0.000 in
16:59 72.0 °F 66.0 °F 30.0 in Calm   4 mph 82% 0.000 in
17:04 72.0 °F 66.0 °F 30.0 in SE 1 mph 1 mph 83% 0.000 in
17:09 72.0 °F 66.0 °F 30.0 in Calm   1 mph 83% 0.000 in
17:14 72.0 °F 66.0 °F 30.0 in SE 1 mph 4 mph 82% 0.000 in
17:19 72.0 °F 66.0 °F 30.0 in SE 1 mph 4 mph 82% 0.000 in
17:24 72.0 °F 66.0 °F 30.0 in Calm   1 mph 83% 0.000 in
17:29 71.0 °F 66.0 °F 30.0 in SE 1 mph 1 mph 83% 0.000 in
17:34 71.0 °F 66.0 °F 30.0 in SE 2 mph 4 mph 83% 0.000 in
17:39 71.0 °F 66.0 °F 30.0 in SE 4 mph 4 mph 83% 0.000 in
17:44 71.0 °F 66.0 °F 30.0 in SE 1 mph 4 mph 83% 0.000 in
17:49 71.0 °F 66.0 °F 30.0 in SE 1 mph 1 mph 83% 0.000 in
17:54 71.0 °F 66.0 °F 30.0 in Calm   1 mph 83% 0.000 in
17:59 71.0 °F 66.0 °F 30.0 in Calm     84% 0.000 in
18:04 71.0 °F 66.0 °F 30.0 in SE 1 mph 1 mph 84% 0.000 in
18:09 71.0 °F 66.0 °F 30.0 in SE 1 mph 1 mph 85% 0.000 in
18:13 71.0 °F 66.0 °F 30.0 in SE 1 mph 1 mph 85% 0.000 in
18:19 71.0 °F 66.0 °F 30.0 in SE 1 mph 2 mph 84% 0.000 in
18:24 71.0 °F 66.0 °F 30.0 in Calm   2 mph 85% 0.000 in
18:29 71.0 °F 66.0 °F 30.0 in Calm   1 mph 86% 0.000 in
18:34 70.0 °F 66.0 °F 30.0 in Calm   1 mph 88% 0.000 in
18:39 70.0 °F 66.0 °F 30.0 in Calm   1 mph 88% 0.010 in
18:44 69.0 °F 66.0 °F 30.0 in Calm     91% 0.010 in
18:49 69.0 °F 66.0 °F 30.0 in SE 1 mph 2 mph 92% 0.010 in
18:54 69.0 °F 66.0 °F 30.0 in Calm     92% 0.020 in
18:59 68.0 °F 66.0 °F 30.0 in Calm     93% 0.020 in
19:04 68.0 °F 66.0 °F 30.1 in Calm     94% 0.020 in
19:09 68.0 °F 66.0 °F 30.1 in Calm     94% 0.020 in
19:14 68.0 °F 66.0 °F 30.1 in Calm     94% 0.020 in
19:19 68.0 °F 66.0 °F 30.1 in Calm     94% 0.020 in
19:24 68.0 °F 66.0 °F 30.1 in Calm     94% 0.020 in
19:29 68.0 °F 66.0 °F 30.0 in SE 1 mph 1 mph 94% 0.020 in
19:34 68.0 °F 66.0 °F 30.0 in SE 1 mph 1 mph 93% 0.020 in
19:39 68.0 °F 66.0 °F 30.0 in Calm   1 mph 93% 0.020 in
19:44 68.0 °F 66.0 °F 30.0 in Calm   1 mph 93% 0.010 in
19:49 68.0 °F 66.0 °F 30.0 in Calm     93% 0.010 in
19:54 68.0 °F 65.0 °F 30.0 in Calm     92% 0.010 in
19:59 68.0 °F 65.0 °F 30.0 in Calm     92% 0.000 in
20:04 68.0 °F 65.0 °F 30.0 in SE 1 mph 1 mph 92% 0.000 in
20:09 68.0 °F 65.0 °F 30.0 in Calm   1 mph 92% 0.000 in
20:14 68.0 °F 65.0 °F 30.0 in Calm     92% 0.000 in
20:19 68.0 °F 65.0 °F 30.0 in Calm     92% 0.000 in
20:24 68.0 °F 65.0 °F 30.1 in Calm     92% 0.000 in
20:29 68.0 °F 65.0 °F 30.1 in Calm     92% 0.000 in
20:34 68.0 °F 65.0 °F 30.1 in Calm     92% 0.000 in
20:39 68.0 °F 65.0 °F 30.1 in Calm     92% 0.000 in
20:44 68.0 °F 65.0 °F 30.1 in Calm     92% 0.000 in
20:49 68.0 °F 65.0 °F 30.1 in Calm     92% 0.000 in
20:54 68.0 °F 65.0 °F 30.1 in Calm     91% 0.000 in
20:59 68.0 °F 65.0 °F 30.1 in Calm     91% 0.000 in
21:04 68.0 °F 65.0 °F 30.1 in Calm     91% 0.000 in
21:09 68.0 °F 65.0 °F 30.1 in Calm     91% 0.000 in
21:14 68.0 °F 65.0 °F 30.1 in Calm     91% 0.000 in
21:19 68.0 °F 65.0 °F 30.1 in Calm     91% 0.000 in
21:24 68.0 °F 65.0 °F 30.1 in Calm     90% 0.000 in
21:29 68.0 °F 65.0 °F 30.1 in Calm     90% 0.000 in
21:34 68.0 °F 65.0 °F 30.1 in Calm   1 mph 91% 0.000 in
21:39 68.0 °F 65.0 °F 30.1 in Calm   1 mph 91% 0.000 in
21:44 68.0 °F 65.0 °F 30.1 in Calm   1 mph 90% 0.000 in
21:49 68.0 °F 65.0 °F 30.1 in SE 1 mph 1 mph 89% 0.000 in
21:54 68.0 °F 65.0 °F 30.1 in Calm   1 mph 89% 0.000 in
21:59 68.0 °F 65.0 °F 30.1 in SE 2 mph 2 mph 89% 0.000 in
22:04 69.0 °F 65.0 °F 30.1 in Calm   1 mph 88% 0.000 in
22:09 69.0 °F 65.0 °F 30.1 in Calm   1 mph 88% 0.000 in
22:14 69.0 °F 65.0 °F 30.1 in Calm   1 mph 88% 0.000 in
22:19 69.0 °F 65.0 °F 30.1 in Calm   1 mph 87% 0.000 in
22:24 69.0 °F 65.0 °F 30.1 in Calm   1 mph 87% 0.000 in
22:29 69.0 °F 65.0 °F 30.1 in SE 1 mph 2 mph 87% 0.000 in
22:34 69.0 °F 65.0 °F 30.1 in SE 4 mph 5 mph 87% 0.000 in
22:39 69.0 °F 65.0 °F 30.1 in Calm   2 mph 86% 0.000 in
22:44 69.0 °F 65.0 °F 30.1 in Calm   1 mph 86% 0.000 in
22:49 69.0 °F 65.0 °F 30.1 in Calm     87% 0.000 in
22:54 69.0 °F 65.0 °F 30.1 in SE 5 mph 5 mph 86% 0.000 in
22:59 69.0 °F 65.0 °F 30.1 in SE 1 mph 1 mph 87% 0.000 in
23:04 69.0 °F 65.0 °F 30.1 in SE 4 mph 4 mph 86% 0.000 in
23:09 69.0 °F 65.0 °F 30.1 in SE 1 mph 1 mph 86% 0.000 in
23:14 69.0 °F 65.0 °F 30.1 in SE 1 mph 1 mph 86% 0.000 in
23:19 69.0 °F 65.0 °F 30.1 in Calm   2 mph 86% 0.000 in
23:24 69.0 °F 65.0 °F 30.1 in SE 1 mph 2 mph 86% 0.000 in
23:29 69.0 °F 65.0 °F 30.1 in SE 1 mph 1 mph 86% 0.000 in
23:34 69.0 °F 64.0 °F 30.1 in SE 4 mph 4 mph 85% 0.000 in
23:39 69.0 °F 64.0 °F 30.1 in ESE 2 mph 5 mph 85% 0.000 in
23:44 69.0 °F 65.0 °F 30.1 in ESE 2 mph 5 mph 86% 0.000 in
23:49 69.0 °F 65.0 °F 30.1 in Calm   5 mph 86% 0.000 in
23:54 69.0 °F 65.0 °F 30.1 in ESE 2 mph 2 mph 86% 0.000 in
23:59 69.0 °F 65.0 °F 30.1 in ESE 1 mph 2 mph 86% 0.000 in
East Ellijay Weather
Compliments of Weather Underground - 2 mb